Terminal Aerodrome Forecast
Issued by NWS

Home | Current Version | Previous Version | Text Only | Print | Product List | Glossary On
Versions: 1 2 3 4 5 6 7 8 9 10 11 12 13 14 15 16 17 18 19 20 21 22
000
FTUS41 KALY 251345 AAA
TAFPSF
TAF AMD
KPSF 251345Z 2514/2612 07013G25KT P6SM VCSH BKN020 OVC030
      TEMPO 2514/2515 6SM -RA BR OVC020
     FM251500 09015G35KT 5SM -RA BR OVC020
     FM252300 08016G37KT P6SM VCSH OVC020 PROB30 2523/2602 4SM -RA
      BR OVC007
     FM260200 07013G25KT 3SM -RA BR SCT008 OVC020
     FM260700 06007KT 2SM -RA BR OVC008=

USA.gov is the U.S. government's official web portal to all federal, state and local government web resources and services.